Time;durP1;ratioP1;P1;durP2;ratioP2;P2;SDS_P1;SDS_P2;PMS_P1;PMS_P2;Temp;Humidity;BMP_temperature;BMP_pressure;BME280_temperature;BME280_humidity;BME280_pressure;Samples;Min_cycle;Max_cycle;Signal;HPM_P1;HPM_P2
2022/08/13 00:00:14;;;;;;;;;;;;;;;;;;5016914;28;20289;-30
2022/08/13 00:02:42;;;;;;;;;;;;;;;;;;5017007;28;19913;-30
2022/08/13 00:05:09;;;;;;;;;;;;;;;;;;5016563;28;19975;-31
2022/08/13 00:07:35;;;;;;;;;;;;;;;;;;5016958;28;20351;-30
2022/08/13 00:10:01;;;;;;;;;;;;;;;;;;5016953;28;20249;-31
2022/08/13 00:15:12;;;;;;;;;;;;;;;;;;5016904;28;19932;-31
2022/08/13 00:17:39;;;;;;;;;;;;;;;;;;5016519;28;19913;-31
2022/08/13 00:20:05;;;;;;;;;;;;;;;;;;5017033;28;19921;-31
2022/08/13 00:22:31;;;;;;;;;;;;;;;;;;5015469;28;20260;-31
2022/08/13 00:24:57;;;;;;;;;;;;;;;;;;5016397;28;19914;-30
2022/08/13 00:27:23;;;;;;;;;;;;;;;;;;5016292;28;20379;-31
2022/08/13 00:29:49;;;;;;;;;;;;;;;;;;5016366;28;20276;-30
2022/08/13 00:32:21;;;;;;;;;;;;;;;;;;5016205;28;19921;-30
2022/08/13 00:34:49;;;;;;;;;;;;;;;;;;5016538;28;20000;-30
2022/08/13 00:37:15;;;;;;;;;;;;;;;;;;5016164;28;20349;-30
2022/08/13 00:39:41;;;;;;;;;;;;;;;;;;5016222;28;19913;-31
2022/08/13 00:42:08;;;;;;;;;;;;;;;;;;5016037;28;19992;-30
2022/08/13 00:44:34;;;;;;;;;;;;;;;;;;5016184;28;19924;-31
2022/08/13 00:49:47;;;;;;;;;;;;;;;;;;5016037;28;19964;-30
2022/08/13 00:52:13;;;;;;;;;;;;;;;;;;5015794;28;19913;-31
2022/08/13 00:54:42;;;;;;;;;;;;;;;;;;5016205;28;19910;-31
2022/08/13 00:57:08;;;;;;;;;;;;;;;;;;5016109;28;20008;-30
2022/08/13 00:59:34;;;;;;;;;;;;;;;;;;5015881;28;20060;-31
2022/08/13 01:02:00;;;;;;;;;;;;;;;;;;5015710;28;19917;-30
2022/08/13 01:04:26;;;;;;;;;;;;;;;;;;5015566;28;19928;-31
2022/08/13 01:06:52;;;;;;;;;;;;;;;;;;5016236;28;19932;-31
2022/08/13 01:09:18;;;;;;;;;;;;;;;;;;5015658;28;19914;-31
2022/08/13 01:11:44;;;;;;;;;;;;;;;;;;5016093;28;19976;-30
2022/08/13 01:14:10;;;;;;;;;;;;;;;;;;5015890;28;19913;-30
2022/08/13 01:16:36;;;;;;;;;;;;;;;;;;5015556;28;20000;-30
2022/08/13 01:19:03;;;;;;;;;;;;;;;;;;5016336;28;20009;-30
2022/08/13 01:21:29;;;;;;;;;;;;;;;;;;5015501;28;19918;-30
2022/08/13 01:23:55;;;;;;;;;;;;;;;;;;5015451;28;19968;-31
2022/08/13 01:26:21;;;;;;;;;;;;;;;;;;5015378;28;20348;-30
2022/08/13 01:28:47;;;;;;;;;;;;;;;;;;5015395;28;19960;-31
2022/08/13 01:31:14;;;;;;;;;;;;;;;;;;5015423;28;19950;-30
2022/08/13 01:33:41;;;;;;;;;;;;;;;;;;5015227;28;19913;-31
2022/08/13 01:36:07;;;;;;;;;;;;;;;;;;5015390;28;20198;-31
2022/08/13 01:38:33;;;;;;;;;;;;;;;;;;5015319;28;19913;-30
2022/08/13 01:40:59;;;;;;;;;;;;;;;;;;5015323;28;19910;-31
2022/08/13 01:43:28;;;;;;;;;;;;;;;;;;5015371;28;20261;-30
2022/08/13 01:45:54;;;;;;;;;;;;;;;;;;5015748;28;19972;-31
2022/08/13 01:51:06;;;;;;;;;;;;;;;;;;5015270;28;20364;-31
2022/08/13 01:53:33;;;;;;;;;;;;;;;;;;5015060;28;19913;-30
2022/08/13 01:56:00;;;;;;;;;;;;;;;;;;5015167;28;19909;-30
2022/08/13 01:58:26;;;;;;;;;;;;;;;;;;5019072;28;19949;-30
2022/08/13 02:00:52;;;;;;;;;;;;;;;;;;5019151;28;19953;-30
2022/08/13 02:03:19;;;;;;;;;;;;;;;;;;5018991;28;19920;-31
2022/08/13 02:05:47;;;;;;;;;;;;;;;;;;5018728;28;20021;-31
2022/08/13 02:08:13;;;;;;;;;;;;;;;;;;5019218;28;19914;-31
2022/08/13 02:10:39;;;;;;;;;;;;;;;;;;5018905;28;19996;-30
2022/08/13 02:13:05;;;;;;;;;;;;;;;;;;5019253;28;20353;-31
2022/08/13 02:15:31;;;;;;;;;;;;;;;;;;5018848;28;19924;-30
2022/08/13 02:17:57;;;;;;;;;;;;;;;;;;5019335;28;19920;-30
2022/08/13 02:20:23;;;;;;;;;;;;;;;;;;5018792;28;19910;-30
2022/08/13 02:22:49;;;;;;;;;;;;;;;;;;5018935;28;19920;-30
2022/08/13 02:25:15;;;;;;;;;;;;;;;;;;5018623;28;19909;-31
2022/08/13 02:27:41;;;;;;;;;;;;;;;;;;5018589;28;20348;-31
2022/08/13 02:30:10;;;;;;;;;;;;;;;;;;5018562;28;19920;-30
2022/08/13 02:32:36;;;;;;;;;;;;;;;;;;5018960;28;19914;-31
2022/08/13 02:35:02;;;;;;;;;;;;;;;;;;5018425;28;20355;-30
2022/08/13 02:37:28;;;;;;;;;;;;;;;;;;5018469;28;19996;-30
2022/08/13 02:39:54;;;;;;;;;;;;;;;;;;5018675;28;19913;-31
2022/08/13 02:42:21;;;;;;;;;;;;;;;;;;5018254;28;19917;-31
2022/08/13 02:44:47;;;;;;;;;;;;;;;;;;5018262;28;19909;-30
2022/08/13 02:47:13;;;;;;;;;;;;;;;;;;5018438;28;19928;-30
2022/08/13 02:49:40;;;;;;;;;;;;;;;;;;5018261;28;20337;-30
2022/08/13 02:52:08;;;;;;;;;;;;;;;;;;5018376;28;19913;-30
2022/08/13 02:54:34;;;;;;;;;;;;;;;;;;5018433;28;19940;-31
2022/08/13 02:57:01;;;;;;;;;;;;;;;;;;5018120;28;19987;-30
2022/08/13 02:59:27;;;;;;;;;;;;;;;;;;5018018;28;20341;-31
2022/08/13 03:01:53;;;;;;;;;;;;;;;;;;5018264;28;19917;-30
2022/08/13 03:04:20;;;;;;;;;;;;;;;;;;5017887;28;19918;-31
2022/08/13 03:06:45;;;;;;;;;;;;;;;;;;5018072;28;19984;-30
2022/08/13 03:09:11;;;;;;;;;;;;;;;;;;5017710;28;20340;-30
2022/08/13 03:11:38;;;;;;;;;;;;;;;;;;5018111;28;19924;-30
2022/08/13 03:14:04;;;;;;;;;;;;;;;;;;5017765;28;20264;-31
2022/08/13 03:16:30;;;;;;;;;;;;;;;;;;5018200;28;19947;-30
2022/08/13 03:18:57;;;;;;;;;;;;;;;;;;5017929;28;20260;-31
2022/08/13 03:21:23;;;;;;;;;;;;;;;;;;5017658;28;19966;-31
2022/08/13 03:23:50;;;;;;;;;;;;;;;;;;5017464;28;19924;-30
2022/08/13 03:26:16;;;;;;;;;;;;;;;;;;5017763;28;19914;-30
2022/08/13 03:28:42;;;;;;;;;;;;;;;;;;5017501;28;19913;-30
2022/08/13 03:31:09;;;;;;;;;;;;;;;;;;5017461;28;19916;-31
2022/08/13 03:33:36;;;;;;;;;;;;;;;;;;5017300;28;19914;-31
2022/08/13 03:36:02;;;;;;;;;;;;;;;;;;5017271;28;19924;-30
2022/08/13 03:38:28;;;;;;;;;;;;;;;;;;5017316;28;19996;-30
2022/08/13 03:41:00;;;;;;;;;;;;;;;;;;5017306;28;20373;-30
2022/08/13 03:43:27;;;;;;;;;;;;;;;;;;5017318;28;19971;-30
2022/08/13 03:45:54;;;;;;;;;;;;;;;;;;5017410;28;20308;-31
2022/08/13 03:48:20;;;;;;;;;;;;;;;;;;5016943;28;20363;-31
2022/08/13 03:50:46;;;;;;;;;;;;;;;;;;5017568;28;19910;-31
2022/08/13 03:53:12;;;;;;;;;;;;;;;;;;5016943;28;19996;-31
2022/08/13 03:55:39;;;;;;;;;;;;;;;;;;5016948;28;20333;-30
2022/08/13 03:58:05;;;;;;;;;;;;;;;;;;5017147;28;20316;-31
2022/08/13 04:00:31;;;;;;;;;;;;;;;;;;5016804;28;19921;-30
2022/08/13 04:02:57;;;;;;;;;;;;;;;;;;5016614;28;19944;-31
2022/08/13 04:05:23;;;;;;;;;;;;;;;;;;5016381;28;20020;-31
2022/08/13 04:07:51;;;;;;;;;;;;;;;;;;5016539;28;19913;-31
2022/08/13 04:10:17;;;;;;;;;;;;;;;;;;5016895;28;20055;-31
2022/08/13 04:12:43;;;;;;;;;;;;;;;;;;5016434;28;20372;-31
2022/08/13 04:15:09;;;;;;;;;;;;;;;;;;5016587;28;20000;-32
2022/08/13 04:17:38;;;;;;;;;;;;;;;;;;5016499;28;19913;-32
2022/08/13 04:20:04;;;;;;;;;;;;;;;;;;5015740;28;19968;-32
2022/08/13 04:22:30;;;;;;;;;;;;;;;;;;5016355;28;19913;-31
2022/08/13 04:24:58;;;;;;;;;;;;;;;;;;5016451;28;19993;-32
2022/08/13 04:27:24;;;;;;;;;;;;;;;;;;5016081;28;20028;-32
2022/08/13 04:29:51;;;;;;;;;;;;;;;;;;5016507;28;19956;-32
2022/08/13 04:32:19;;;;;;;;;;;;;;;;;;5016161;28;19971;-31
2022/08/13 04:34:45;;;;;;;;;;;;;;;;;;5016411;28;19913;-32
2022/08/13 04:37:11;;;;;;;;;;;;;;;;;;5016098;28;19921;-31
2022/08/13 04:39:37;;;;;;;;;;;;;;;;;;5017183;28;19920;-32
2022/08/13 04:42:07;;;;;;;;;;;;;;;;;;5015972;28;19974;-31
2022/08/13 04:44:33;;;;;;;;;;;;;;;;;;5015974;28;19920;-33
2022/08/13 04:46:59;;;;;;;;;;;;;;;;;;5015922;28;19918;-33
2022/08/13 04:49:25;;;;;;;;;;;;;;;;;;5016014;28;20233;-31
2022/08/13 04:51:51;;;;;;;;;;;;;;;;;;5015868;28;19959;-32
2022/08/13 04:54:19;;;;;;;;;;;;;;;;;;5015926;28;19920;-32
2022/08/13 04:56:45;;;;;;;;;;;;;;;;;;5016131;28;20288;-31
2022/08/13 04:59:12;;;;;;;;;;;;;;;;;;5016365;28;20004;-31
2022/08/13 05:01:38;;;;;;;;;;;;;;;;;;5015772;28;19963;-30
2022/08/13 05:04:05;;;;;;;;;;;;;;;;;;5015783;28;19933;-32
2022/08/13 05:06:31;;;;;;;;;;;;;;;;;;5015818;28;19925;-32
2022/08/13 05:08:58;;;;;;;;;;;;;;;;;;5015538;28;20375;-32
2022/08/13 05:11:25;;;;;;;;;;;;;;;;;;5015561;28;19940;-32
2022/08/13 05:13:51;;;;;;;;;;;;;;;;;;5015688;28;19925;-32
2022/08/13 05:16:17;;;;;;;;;;;;;;;;;;5015755;28;19971;-33
2022/08/13 05:18:44;;;;;;;;;;;;;;;;;;5015452;28;20327;-32
2022/08/13 05:21:10;;;;;;;;;;;;;;;;;;5016037;28;19920;-31
2022/08/13 05:23:37;;;;;;;;;;;;;;;;;;5015354;28;19913;-31
2022/08/13 05:26:03;;;;;;;;;;;;;;;;;;5015635;28;19917;-31
2022/08/13 05:28:30;;;;;;;;;;;;;;;;;;5015666;28;20329;-30
2022/08/13 05:30:56;;;;;;;;;;;;;;;;;;5015519;28;19910;-30
2022/08/13 05:33:22;;;;;;;;;;;;;;;;;;5015193;28;19921;-32
2022/08/13 05:35:48;;;;;;;;;;;;;;;;;;5015293;28;19913;-32
2022/08/13 05:38:16;;;;;;;;;;;;;;;;;;5015276;28;20004;-32
2022/08/13 05:40:42;;;;;;;;;;;;;;;;;;5015532;28;19974;-32
2022/08/13 05:43:08;;;;;;;;;;;;;;;;;;5015082;28;19914;-31
2022/08/13 05:45:36;;;;;;;;;;;;;;;;;;5015688;28;19917;-32
2022/08/13 05:48:02;;;;;;;;;;;;;;;;;;5015450;28;19941;-31
2022/08/13 05:50:28;;;;;;;;;;;;;;;;;;5015230;28;19999;-30
2022/08/13 05:52:54;;;;;;;;;;;;;;;;;;5015072;28;19948;-32
2022/08/13 05:55:21;;;;;;;;;;;;;;;;;;5015179;28;19972;-31
2022/08/13 05:57:47;;;;;;;;;;;;;;;;;;5015083;28;19917;-31
2022/08/13 06:05:46;;;;;;;;;;;;;;;;;;5014849;28;20318;-31
2022/08/13 06:08:17;;;;;;;;;;;;;;;;;;5015037;28;19914;-30
2022/08/13 06:10:43;;;;;;;;;;;;;;;;;;5015304;28;19914;-31
2022/08/13 06:13:09;;;;;;;;;;;;;;;;;;5014788;28;19913;-30
2022/08/13 06:15:35;;;;;;;;;;;;;;;;;;5015247;28;19920;-30
2022/08/13 06:18:01;;;;;;;;;;;;;;;;;;5014947;28;19913;-30
2022/08/13 06:20:29;;;;;;;;;;;;;;;;;;5014949;28;19968;-31
2022/08/13 06:22:57;;;;;;;;;;;;;;;;;;5015016;28;19971;-31
2022/08/13 06:25:23;;;;;;;;;;;;;;;;;;5015044;28;20257;-31
2022/08/13 06:27:49;;;;;;;;;;;;;;;;;;5015009;28;19913;-31
2022/08/13 06:30:18;;;;;;;;;;;;;;;;;;5015333;28;19921;-31
2022/08/13 06:32:44;;;;;;;;;;;;;;;;;;5015250;28;20311;-31
2022/08/13 06:35:10;;;;;;;;;;;;;;;;;;5014804;28;20003;-30
2022/08/13 06:37:36;;;;;;;;;;;;;;;;;;5014950;28;20008;-31
2022/08/13 06:40:02;;;;;;;;;;;;;;;;;;5014656;28;19910;-31
2022/08/13 06:42:29;;;;;;;;;;;;;;;;;;5015291;28;19914;-32
2022/08/13 06:44:55;;;;;;;;;;;;;;;;;;5018216;28;19917;-31
2022/08/13 06:47:21;;;;;;;;;;;;;;;;;;5018038;28;19924;-32
2022/08/13 06:49:47;;;;;;;;;;;;;;;;;;5018681;28;19909;-32
2022/08/13 06:52:13;;;;;;;;;;;;;;;;;;5018384;28;20327;-31
2022/08/13 06:54:39;;;;;;;;;;;;;;;;;;5018600;28;19909;-32
2022/08/13 06:57:05;;;;;;;;;;;;;;;;;;5017974;28;20302;-30
2022/08/13 06:59:33;;;;;;;;;;;;;;;;;;5018182;28;19910;-31
2022/08/13 07:02:00;;;;;;;;;;;;;;;;;;5017799;28;19914;-31
2022/08/13 07:04:26;;;;;;;;;;;;;;;;;;5017681;28;20299;-32
2022/08/13 07:06:52;;;;;;;;;;;;;;;;;;5017757;28;19928;-31
2022/08/13 07:09:19;;;;;;;;;;;;;;;;;;5017815;28;19910;-33
2022/08/13 07:11:45;;;;;;;;;;;;;;;;;;5018114;28;19996;-33
2022/08/13 07:14:11;;;;;;;;;;;;;;;;;;5017732;28;19914;-33
2022/08/13 07:16:39;;;;;;;;;;;;;;;;;;5017746;28;19964;-32
2022/08/13 07:19:05;;;;;;;;;;;;;;;;;;5017738;28;20253;-32
2022/08/13 07:21:31;;;;;;;;;;;;;;;;;;5017967;28;19928;-33
2022/08/13 07:23:57;;;;;;;;;;;;;;;;;;5016575;28;20401;-33
2022/08/13 07:26:24;;;;;;;;;;;;;;;;;;5017426;28;19957;-31
2022/08/13 07:28:50;;;;;;;;;;;;;;;;;;5017373;28;19917;-31
2022/08/13 07:31:16;;;;;;;;;;;;;;;;;;5017307;28;19959;-30
2022/08/13 07:33:42;;;;;;;;;;;;;;;;;;5017078;28;19914;-31
2022/08/13 07:36:08;;;;;;;;;;;;;;;;;;5018003;28;19909;-31
2022/08/13 07:38:34;;;;;;;;;;;;;;;;;;5017226;28;20004;-31
2022/08/13 07:41:00;;;;;;;;;;;;;;;;;;5017699;28;19971;-32
2022/08/13 07:43:26;;;;;;;;;;;;;;;;;;5017285;28;19917;-32
2022/08/13 07:45:52;;;;;;;;;;;;;;;;;;5016976;28;19970;-31
2022/08/13 07:48:19;;;;;;;;;;;;;;;;;;5017062;28;20008;-31
2022/08/13 07:50:45;;;;;;;;;;;;;;;;;;5016974;28;20300;-31
2022/08/13 07:53:12;;;;;;;;;;;;;;;;;;5016607;28;19928;-30
2022/08/13 07:55:38;;;;;;;;;;;;;;;;;;5016137;28;19920;-32
2022/08/13 07:58:04;;;;;;;;;;;;;;;;;;5017596;28;19913;-32
2022/08/13 08:00:30;;;;;;;;;;;;;;;;;;5017079;28;19914;-32
2022/08/13 08:02:56;;;;;;;;;;;;;;;;;;5015691;28;19913;-32
2022/08/13 08:05:22;;;;;;;;;;;;;;;;;;5016538;28;19926;-32
2022/08/13 08:07:49;;;;;;;;;;;;;;;;;;5016534;28;19974;-32
2022/08/13 08:10:15;;;;;;;;;;;;;;;;;;5016640;28;19956;-33
2022/08/13 08:12:41;;;;;;;;;;;;;;;;;;5016741;28;19917;-33
2022/08/13 08:15:07;;;;;;;;;;;;;;;;;;5016556;28;19910;-33
2022/08/13 08:17:33;;;;;;;;;;;;;;;;;;5017067;28;20256;-33
2022/08/13 08:19:59;;;;;;;;;;;;;;;;;;5016484;28;19923;-32
2022/08/13 08:22:25;;;;;;;;;;;;;;;;;;5016640;28;19917;-32
2022/08/13 08:24:51;;;;;;;;;;;;;;;;;;5016531;28;19917;-31
2022/08/13 08:27:17;;;;;;;;;;;;;;;;;;5016288;28;20304;-31
2022/08/13 08:29:43;;;;;;;;;;;;;;;;;;5016582;28;20001;-32
2022/08/13 08:32:09;;;;;;;;;;;;;;;;;;5016233;28;20008;-31
2022/08/13 08:34:35;;;;;;;;;;;;;;;;;;5016819;28;19909;-31
2022/08/13 08:37:01;;;;;;;;;;;;;;;;;;5016533;28;19960;-32
2022/08/13 08:44:57;;;;;;;;;;;;;;;;;;5016704;28;20364;-32
2022/08/13 08:47:24;;;;;;;;;;;;;;;;;;5016013;28;19957;-31
2022/08/13 08:49:50;;;;;;;;;;;;;;;;;;5015988;28;20419;-32
2022/08/13 08:52:16;;;;;;;;;;;;;;;;;;5016499;28;19949;-32
2022/08/13 08:54:42;;;;;;;;;;;;;;;;;;5015939;28;19976;-31
2022/08/13 08:57:08;;;;;;;;;;;;;;;;;;5015898;28;20257;-31
2022/08/13 08:59:41;;;;;;;;;;;;;;;;;;5016435;28;19910;-31
2022/08/13 09:02:08;;;;;;;;;;;;;;;;;;5015793;28;19939;-32
2022/08/13 09:04:34;;;;;;;;;;;;;;;;;;5015585;28;19918;-32
2022/08/13 09:07:00;;;;;;;;;;;;;;;;;;5014364;28;20264;-31
2022/08/13 09:09:26;;;;;;;;;;;;;;;;;;5015743;28;20315;-31
2022/08/13 09:11:55;;;;;;;;;;;;;;;;;;5015847;28;19914;-31
2022/08/13 09:14:22;;;;;;;;;;;;;;;;;;5015625;28;19913;-31
2022/08/13 09:16:49;;;;;;;;;;;;;;;;;;5015866;28;20251;-32
2022/08/13 09:19:15;;;;;;;;;;;;;;;;;;5015818;28;19983;-31
2022/08/13 09:21:41;;;;;;;;;;;;;;;;;;5015748;28;19913;-33
2022/08/13 09:24:07;;;;;;;;;;;;;;;;;;5015668;28;19913;-32
2022/08/13 09:26:33;;;;;;;;;;;;;;;;;;5015342;28;20241;-31
2022/08/13 09:28:59;;;;;;;;;;;;;;;;;;5015332;28;19925;-32
2022/08/13 09:31:25;;;;;;;;;;;;;;;;;;5015319;28;20340;-30
2022/08/13 09:33:53;;;;;;;;;;;;;;;;;;5015251;28;19914;-31
2022/08/13 09:36:19;;;;;;;;;;;;;;;;;;5015601;28;19909;-32
2022/08/13 09:38:45;;;;;;;;;;;;;;;;;;5015315;28;19914;-33
2022/08/13 09:41:16;;;;;;;;;;;;;;;;;;5015561;28;20419;-32
2022/08/13 09:43:43;;;;;;;;;;;;;;;;;;5015186;28;19989;-32
2022/08/13 09:46:09;;;;;;;;;;;;;;;;;;5015982;28;19917;-32
2022/08/13 09:48:35;;;;;;;;;;;;;;;;;;5015114;28;19925;-32
2022/08/13 09:51:02;;;;;;;;;;;;;;;;;;5015691;28;19914;-32
2022/08/13 09:53:28;;;;;;;;;;;;;;;;;;5015358;28;19913;-31
2022/08/13 09:55:56;;;;;;;;;;;;;;;;;;5014989;28;20371;-32
2022/08/13 09:58:25;;;;;;;;;;;;;;;;;;5015107;28;20424;-32
2022/08/13 10:00:55;;;;;;;;;;;;;;;;;;5014208;28;20283;-32
2022/08/13 10:03:21;;;;;;;;;;;;;;;;;;5015243;28;20352;-32
2022/08/13 10:05:47;;;;;;;;;;;;;;;;;;5014963;28;19928;-31
2022/08/13 10:08:13;;;;;;;;;;;;;;;;;;5015582;28;19914;-31
2022/08/13 10:10:39;;;;;;;;;;;;;;;;;;5015326;28;19909;-32
2022/08/13 10:13:05;;;;;;;;;;;;;;;;;;5015184;28;19972;-32
2022/08/13 10:15:31;;;;;;;;;;;;;;;;;;5015277;28;19910;-30
2022/08/13 10:17:57;;;;;;;;;;;;;;;;;;5016717;28;19913;-31
2022/08/13 10:20:24;;;;;;;;;;;;;;;;;;5018815;28;20004;-31
2022/08/13 10:22:50;;;;;;;;;;;;;;;;;;5018959;28;19913;-32
2022/08/13 10:25:16;;;;;;;;;;;;;;;;;;5018737;28;19917;-31
2022/08/13 10:27:42;;;;;;;;;;;;;;;;;;5018659;28;19917;-31
2022/08/13 10:30:08;;;;;;;;;;;;;;;;;;5018589;28;20000;-30
2022/08/13 10:32:34;;;;;;;;;;;;;;;;;;5017566;28;20310;-32
2022/08/13 10:35:03;;;;;;;;;;;;;;;;;;5018555;28;19939;-31
2022/08/13 10:37:29;;;;;;;;;;;;;;;;;;5019580;28;20000;-30
2022/08/13 10:39:55;;;;;;;;;;;;;;;;;;5018459;28;19971;-31
2022/08/13 10:42:21;;;;;;;;;;;;;;;;;;5018739;28;19924;-32
2022/08/13 10:44:52;;;;;;;;;;;;;;;;;;5017413;28;20333;-31
2022/08/13 10:47:18;;;;;;;;;;;;;;;;;;5018592;28;20003;-31
2022/08/13 10:49:44;;;;;;;;;;;;;;;;;;5018321;28;20391;-33
2022/08/13 10:52:09;;;;;;;;;;;;;;;;;;5018226;28;19913;-32
2022/08/13 10:54:35;;;;;;;;;;;;;;;;;;5018158;28;19913;-31
2022/08/13 10:57:01;;;;;;;;;;;;;;;;;;5018138;28;19913;-31
2022/08/13 10:59:28;;;;;;;;;;;;;;;;;;5018873;28;19909;-30
2022/08/13 11:01:54;;;;;;;;;;;;;;;;;;5018253;28;20340;-31
2022/08/13 11:04:20;;;;;;;;;;;;;;;;;;5016915;28;19924;-32
2022/08/13 11:06:46;;;;;;;;;;;;;;;;;;5018195;28;19929;-30
2022/08/13 11:09:12;;;;;;;;;;;;;;;;;;5017952;28;19917;-32
2022/08/13 11:11:38;;;;;;;;;;;;;;;;;;5017945;28;20333;-31
2022/08/13 11:14:04;;;;;;;;;;;;;;;;;;5018322;28;19913;-32
2022/08/13 11:19:09;;;;;;;;;;;;;;;;;;5017788;28;19924;-31
2022/08/13 11:21:35;;;;;;;;;;;;;;;;;;5017763;28;19910;-32
2022/08/13 11:24:01;;;;;;;;;;;;;;;;;;5018122;28;19918;-31
2022/08/13 11:26:27;;;;;;;;;;;;;;;;;;5016633;28;19920;-32
2022/08/13 11:28:53;;;;;;;;;;;;;;;;;;5017826;28;19913;-31
2022/08/13 11:31:19;;;;;;;;;;;;;;;;;;5017581;28;19909;-32
2022/08/13 11:33:45;;;;;;;;;;;;;;;;;;5017383;28;19967;-32
2022/08/13 11:36:11;;;;;;;;;;;;;;;;;;5017719;28;19913;-32
2022/08/13 11:38:37;;;;;;;;;;;;;;;;;;5017409;28;19949;-31
2022/08/13 11:41:03;;;;;;;;;;;;;;;;;;5017370;28;19910;-32
2022/08/13 11:43:29;;;;;;;;;;;;;;;;;;5017229;28;20335;-31
2022/08/13 11:45:56;;;;;;;;;;;;;;;;;;5017469;28;20356;-31
2022/08/13 11:48:22;;;;;;;;;;;;;;;;;;5017193;28;20352;-32
2022/08/13 11:50:48;;;;;;;;;;;;;;;;;;5017479;28;19909;-31
2022/08/13 11:53:14;;;;;;;;;;;;;;;;;;5017062;28;19921;-31
2022/08/13 11:55:40;;;;;;;;;;;;;;;;;;5017104;28;19945;-32
2022/08/13 11:58:06;;;;;;;;;;;;;;;;;;5017022;28;20256;-31
2022/08/13 12:00:31;;;;;;;;;;;;;;;;;;5017233;28;20004;-31
2022/08/13 12:02:57;;;;;;;;;;;;;;;;;;5016861;28;19913;-30
2022/08/13 12:05:25;;;;;;;;;;;;;;;;;;5015979;28;20220;-31
2022/08/13 12:07:52;;;;;;;;;;;;;;;;;;5016797;28;19921;-31
2022/08/13 12:10:18;;;;;;;;;;;;;;;;;;5016756;28;19914;-32
2022/08/13 12:12:44;;;;;;;;;;;;;;;;;;5016936;28;19913;-31
2022/08/13 12:15:10;;;;;;;;;;;;;;;;;;5016729;28;19910;-31
2022/08/13 12:17:36;;;;;;;;;;;;;;;;;;5016907;28;20004;-32
2022/08/13 12:20:02;;;;;;;;;;;;;;;;;;5016632;28;20312;-32
2022/08/13 12:22:28;;;;;;;;;;;;;;;;;;5016545;28;19913;-31
2022/08/13 12:24:54;;;;;;;;;;;;;;;;;;5016540;28;19913;-31
2022/08/13 12:27:20;;;;;;;;;;;;;;;;;;5016351;28;19917;-30
2022/08/13 12:29:46;;;;;;;;;;;;;;;;;;5016431;28;19932;-29
2022/08/13 12:32:12;;;;;;;;;;;;;;;;;;5016628;28;20248;-31
2022/08/13 12:34:38;;;;;;;;;;;;;;;;;;5016635;28;19910;-31
2022/08/13 12:37:04;;;;;;;;;;;;;;;;;;5016333;28;19914;-32
2022/08/13 12:39:30;;;;;;;;;;;;;;;;;;5016206;28;19920;-32
2022/08/13 12:41:56;;;;;;;;;;;;;;;;;;5015595;28;20000;-31
2022/08/13 12:44:22;;;;;;;;;;;;;;;;;;5016164;28;19949;-31
2022/08/13 12:46:48;;;;;;;;;;;;;;;;;;5016681;28;20404;-30
2022/08/13 12:49:14;;;;;;;;;;;;;;;;;;5016169;28;19921;-31
2022/08/13 12:51:40;;;;;;;;;;;;;;;;;;5016076;28;19940;-31
2022/08/13 12:54:06;;;;;;;;;;;;;;;;;;5016530;28;19913;-30
2022/08/13 12:56:32;;;;;;;;;;;;;;;;;;5015111;28;19913;-32
2022/08/13 12:58:58;;;;;;;;;;;;;;;;;;5016476;28;19913;-31
2022/08/13 13:01:24;;;;;;;;;;;;;;;;;;5016440;28;19913;-31
2022/08/13 13:03:50;;;;;;;;;;;;;;;;;;5015565;28;19917;-31
2022/08/13 13:06:16;;;;;;;;;;;;;;;;;;5014843;28;19913;-31
2022/08/13 13:08:43;;;;;;;;;;;;;;;;;;5016068;28;20252;-32
2022/08/13 13:11:09;;;;;;;;;;;;;;;;;;5015723;28;19910;-31
2022/08/13 13:13:35;;;;;;;;;;;;;;;;;;5015895;28;19924;-31
2022/08/13 13:16:01;;;;;;;;;;;;;;;;;;5015737;28;19924;-31
2022/08/13 13:18:30;;;;;;;;;;;;;;;;;;5015596;28;19913;-30
2022/08/13 13:20:56;;;;;;;;;;;;;;;;;;5016394;28;19910;-30
2022/08/13 13:23:22;;;;;;;;;;;;;;;;;;5015775;28;19975;-31
2022/08/13 13:25:48;;;;;;;;;;;;;;;;;;5015780;28;20013;-31
2022/08/13 13:28:15;;;;;;;;;;;;;;;;;;5015741;28;20000;-31
2022/08/13 13:30:42;;;;;;;;;;;;;;;;;;5015515;28;19957;-31
2022/08/13 13:33:09;;;;;;;;;;;;;;;;;;5015331;28;19917;-31
2022/08/13 13:35:35;;;;;;;;;;;;;;;;;;5015406;28;19909;-31
2022/08/13 13:38:01;;;;;;;;;;;;;;;;;;5015424;28;19918;-31
2022/08/13 13:40:27;;;;;;;;;;;;;;;;;;5015331;28;19915;-29
2022/08/13 13:42:53;;;;;;;;;;;;;;;;;;5015293;28;19921;-30
2022/08/13 13:45:19;;;;;;;;;;;;;;;;;;5015331;28;20356;-30
2022/08/13 13:47:45;;;;;;;;;;;;;;;;;;5015471;28;20344;-31
2022/08/13 13:50:11;;;;;;;;;;;;;;;;;;5015541;28;19972;-31
2022/08/13 13:52:37;;;;;;;;;;;;;;;;;;5018395;28;19913;-31
2022/08/13 13:55:04;;;;;;;;;;;;;;;;;;5019340;28;19914;-31
2022/08/13 13:57:30;;;;;;;;;;;;;;;;;;5019546;28;19910;-31
2022/08/13 13:59:56;;;;;;;;;;;;;;;;;;5019561;28;20299;-30
2022/08/13 14:02:22;;;;;;;;;;;;;;;;;;5019339;28;19924;-30
2022/08/13 14:04:48;;;;;;;;;;;;;;;;;;5018982;28;19932;-31
2022/08/13 14:07:14;;;;;;;;;;;;;;;;;;5019361;28;19948;-31
2022/08/13 14:09:40;;;;;;;;;;;;;;;;;;5019076;28;19928;-31
2022/08/13 14:12:06;;;;;;;;;;;;;;;;;;5018923;28;19913;-31
2022/08/13 14:14:32;;;;;;;;;;;;;;;;;;5019037;28;19910;-30
2022/08/13 14:17:00;;;;;;;;;;;;;;;;;;5018881;28;19914;-31
2022/08/13 14:19:26;;;;;;;;;;;;;;;;;;5018835;28;19924;-30
2022/08/13 14:21:52;;;;;;;;;;;;;;;;;;5018840;28;19910;-31
2022/08/13 14:24:19;;;;;;;;;;;;;;;;;;5019366;28;19971;-31
2022/08/13 14:26:45;;;;;;;;;;;;;;;;;;5019257;28;19921;-31
2022/08/13 14:29:11;;;;;;;;;;;;;;;;;;5018947;28;19917;-31
2022/08/13 14:31:37;;;;;;;;;;;;;;;;;;5017767;28;19917;-31
2022/08/13 14:34:03;;;;;;;;;;;;;;;;;;5018547;28;19913;-30
2022/08/13 14:36:29;;;;;;;;;;;;;;;;;;5018566;28;19917;-32
2022/08/13 14:38:55;;;;;;;;;;;;;;;;;;5018521;28;20012;-31
2022/08/13 14:41:21;;;;;;;;;;;;;;;;;;5018539;28;19920;-32
2022/08/13 14:43:47;;;;;;;;;;;;;;;;;;5018362;28;19913;-32
2022/08/13 14:46:13;;;;;;;;;;;;;;;;;;5018362;28;20303;-30
2022/08/13 14:48:39;;;;;;;;;;;;;;;;;;5018637;28;19914;-31
2022/08/13 14:51:05;;;;;;;;;;;;;;;;;;5018280;28;20333;-31
2022/08/13 14:53:31;;;;;;;;;;;;;;;;;;5018172;28;19913;-31
2022/08/13 14:55:58;;;;;;;;;;;;;;;;;;5018193;28;19909;-31
2022/08/13 14:58:25;;;;;;;;;;;;;;;;;;5018191;28;20234;-31
2022/08/13 15:00:54;;;;;;;;;;;;;;;;;;5018105;28;19980;-32
2022/08/13 15:03:20;;;;;;;;;;;;;;;;;;5017270;28;19924;-31
2022/08/13 15:05:46;;;;;;;;;;;;;;;;;;5017828;28;19933;-31
2022/08/13 15:08:15;;;;;;;;;;;;;;;;;;5017965;28;19992;-30
2022/08/13 15:10:41;;;;;;;;;;;;;;;;;;5017955;28;19914;-31
2022/08/13 15:13:09;;;;;;;;;;;;;;;;;;5018060;28;20392;-31
2022/08/13 15:15:36;;;;;;;;;;;;;;;;;;5018431;28;19910;-30
2022/08/13 15:18:02;;;;;;;;;;;;;;;;;;5017739;28;19996;-31
2022/08/13 15:20:29;;;;;;;;;;;;;;;;;;5017806;28;19955;-31
2022/08/13 15:22:55;;;;;;;;;;;;;;;;;;5018254;28;19925;-32
2022/08/13 15:25:21;;;;;;;;;;;;;;;;;;5017667;28;19913;-31
2022/08/13 15:27:49;;;;;;;;;;;;;;;;;;5017573;28;20288;-31
2022/08/13 15:30:15;;;;;;;;;;;;;;;;;;5018372;28;19917;-31
2022/08/13 15:32:41;;;;;;;;;;;;;;;;;;5017744;28;19917;-30
2022/08/13 15:35:07;;;;;;;;;;;;;;;;;;5017774;28;19909;-31
2022/08/13 15:37:33;;;;;;;;;;;;;;;;;;5017953;28;19913;-31
2022/08/13 15:39:59;;;;;;;;;;;;;;;;;;5017682;28;19940;-31
2022/08/13 15:42:26;;;;;;;;;;;;;;;;;;5017451;28;19917;-30
2022/08/13 15:44:52;;;;;;;;;;;;;;;;;;5017618;28;20259;-31
2022/08/13 15:47:18;;;;;;;;;;;;;;;;;;5017454;28;19917;-31
2022/08/13 15:49:45;;;;;;;;;;;;;;;;;;5017770;28;19910;-30
2022/08/13 15:52:12;;;;;;;;;;;;;;;;;;5017102;28;19913;-32
2022/08/13 15:54:38;;;;;;;;;;;;;;;;;;5017140;28;20023;-31
2022/08/13 15:57:05;;;;;;;;;;;;;;;;;;5017441;28;19960;-31
2022/08/13 15:59:31;;;;;;;;;;;;;;;;;;5017305;28;19917;-31
2022/08/13 16:01:59;;;;;;;;;;;;;;;;;;5016924;28;20372;-32
2022/08/13 16:04:25;;;;;;;;;;;;;;;;;;5016919;28;20003;-31
2022/08/13 16:06:52;;;;;;;;;;;;;;;;;;5017440;28;20363;-31
2022/08/13 16:09:18;;;;;;;;;;;;;;;;;;5017153;28;19945;-32
2022/08/13 16:11:45;;;;;;;;;;;;;;;;;;5017072;28;19979;-32
2022/08/13 16:14:11;;;;;;;;;;;;;;;;;;5016587;28;19921;-31
2022/08/13 16:16:37;;;;;;;;;;;;;;;;;;5016089;28;19968;-31
2022/08/13 16:19:03;;;;;;;;;;;;;;;;;;5016720;28;19913;-31
2022/08/13 16:21:29;;;;;;;;;;;;;;;;;;5016586;28;19968;-31
2022/08/13 16:23:55;;;;;;;;;;;;;;;;;;5016599;28;19910;-32
2022/08/13 16:26:23;;;;;;;;;;;;;;;;;;5016482;28;19921;-32
2022/08/13 16:28:49;;;;;;;;;;;;;;;;;;5016519;28;19910;-31
2022/08/13 16:31:15;;;;;;;;;;;;;;;;;;5016727;28;20004;-32
2022/08/13 16:33:41;;;;;;;;;;;;;;;;;;5016635;28;19964;-31
2022/08/13 16:36:07;;;;;;;;;;;;;;;;;;5016644;28;19940;-31
2022/08/13 16:38:33;;;;;;;;;;;;;;;;;;5016370;28;19976;-32
2022/08/13 16:41:00;;;;;;;;;;;;;;;;;;5016347;28;20309;-31
2022/08/13 16:43:26;;;;;;;;;;;;;;;;;;5016156;28;19920;-31
2022/08/13 16:45:52;;;;;;;;;;;;;;;;;;5016130;28;19913;-32
2022/08/13 16:48:19;;;;;;;;;;;;;;;;;;5016169;28;19999;-31
2022/08/13 16:50:45;;;;;;;;;;;;;;;;;;5016384;28;20114;-32
2022/08/13 16:53:11;;;;;;;;;;;;;;;;;;5016039;28;19917;-33
2022/08/13 16:55:37;;;;;;;;;;;;;;;;;;5016073;28;20378;-31
2022/08/13 16:58:03;;;;;;;;;;;;;;;;;;5016241;28;19918;-32
2022/08/13 17:00:31;;;;;;;;;;;;;;;;;;5016277;28;19920;-31